Terminal Aerodrome Forecast
Issued by NWS Caribou, ME

Home | Current Version | Previous Version | Text Only | Print | Product List | Glossary On
Versions: 1 2 3 4 5 6 7 8 9 10 11 12 13 14 15 16 17 18 19
000
FTUS41 KCAR 221120
TAFCAR
TAF
KCAR 221120Z 2212/2312 19004KT P6SM BKN035
     FM221400 21004KT P6SM BKN025
     FM221500 22004KT P6SM SCT025
     FM230500 20004KT 3SM BR BKN025=

USA.gov is the U.S. government's official web portal to all federal, state and local government web resources and services.